sensor_id;sensor_type;location;lat;lon;timestamp;P1;durP1;ratioP1;P2;durP2;ratioP2
42978;SDS011;28616;44.746;19.678;2023-05-24T00:00:39;17.95;;;10.68;;
42978;SDS011;28616;44.746;19.678;2023-05-24T00:03:06;18.48;;;10.57;;
42978;SDS011;28616;44.746;19.678;2023-05-24T00:05:32;17.42;;;10.73;;
42978;SDS011;28616;44.746;19.678;2023-05-24T00:08:01;15.70;;;10.57;;
42978;SDS011;28616;44.746;19.678;2023-05-24T00:10:27;17.73;;;10.55;;
42978;SDS011;28616;44.746;19.678;2023-05-24T00:12:53;19.23;;;10.38;;
42978;SDS011;28616;44.746;19.678;2023-05-24T00:15:19;17.95;;;10.23;;
42978;SDS011;28616;44.746;19.678;2023-05-24T00:17:44;24.02;;;10.35;;
42978;SDS011;28616;44.746;19.678;2023-05-24T00:20:10;15.05;;;9.90;;
42978;SDS011;28616;44.746;19.678;2023-05-24T00:22:38;15.10;;;10.55;;
42978;SDS011;28616;44.746;19.678;2023-05-24T00:25:05;16.25;;;10.25;;
42978;SDS011;28616;44.746;19.678;2023-05-24T00:27:31;15.43;;;10.60;;
42978;SDS011;28616;44.746;19.678;2023-05-24T00:29:57;16.08;;;10.27;;
42978;SDS011;28616;44.746;19.678;2023-05-24T00:32:23;19.13;;;10.90;;
42978;SDS011;28616;44.746;19.678;2023-05-24T00:34:49;20.55;;;10.27;;
42978;SDS011;28616;44.746;19.678;2023-05-24T00:37:15;17.65;;;9.82;;
42978;SDS011;28616;44.746;19.678;2023-05-24T00:39:42;20.23;;;9.88;;
42978;SDS011;28616;44.746;19.678;2023-05-24T00:42:07;15.15;;;10.10;;
42978;SDS011;28616;44.746;19.678;2023-05-24T00:44:33;19.77;;;10.27;;
42978;SDS011;28616;44.746;19.678;2023-05-24T00:46:59;18.70;;;9.63;;
42978;SDS011;28616;44.746;19.678;2023-05-24T00:49:25;18.67;;;11.07;;
42978;SDS011;28616;44.746;19.678;2023-05-24T00:51:51;15.05;;;9.95;;
42978;SDS011;28616;44.746;19.678;2023-05-24T00:54:18;17.73;;;9.82;;
42978;SDS011;28616;44.746;19.678;2023-05-24T00:56:44;17.67;;;11.23;;
42978;SDS011;28616;44.746;19.678;2023-05-24T00:59:11;16.65;;;10.38;;
42978;SDS011;28616;44.746;19.678;2023-05-24T01:01:38;24.92;;;12.43;;
42978;SDS011;28616;44.746;19.678;2023-05-24T01:04:05;21.88;;;11.63;;
42978;SDS011;28616;44.746;19.678;2023-05-24T01:06:37;20.63;;;11.75;;
42978;SDS011;28616;44.746;19.678;2023-05-24T01:12:19;20.10;;;12.20;;
42978;SDS011;28616;44.746;19.678;2023-05-24T01:20:26;18.33;;;12.10;;
42978;SDS011;28616;44.746;19.678;2023-05-24T01:30:48;15.48;;;10.50;;
42978;SDS011;28616;44.746;19.678;2023-05-24T01:33:15;18.30;;;10.95;;
42978;SDS011;28616;44.746;19.678;2023-05-24T01:35:41;17.30;;;11.43;;
42978;SDS011;28616;44.746;19.678;2023-05-24T01:38:07;20.45;;;11.48;;
42978;SDS011;28616;44.746;19.678;2023-05-24T01:40:35;26.50;;;12.00;;
42978;SDS011;28616;44.746;19.678;2023-05-24T01:48:41;21.30;;;11.85;;
42978;SDS011;28616;44.746;19.678;2023-05-24T01:51:24;17.55;;;11.32;;
42978;SDS011;28616;44.746;19.678;2023-05-24T01:53:58;18.85;;;12.00;;
42978;SDS011;28616;44.746;19.678;2023-05-24T01:56:25;21.27;;;11.55;;
42978;SDS011;28616;44.746;19.678;2023-05-24T01:58:53;21.58;;;11.98;;
42978;SDS011;28616;44.746;19.678;2023-05-24T02:01:20;18.02;;;11.85;;
42978;SDS011;28616;44.746;19.678;2023-05-24T02:03:47;19.38;;;11.60;;
42978;SDS011;28616;44.746;19.678;2023-05-24T02:06:14;20.05;;;11.50;;
42978;SDS011;28616;44.746;19.678;2023-05-24T02:08:40;16.35;;;11.25;;
42978;SDS011;28616;44.746;19.678;2023-05-24T02:11:06;21.90;;;11.30;;
42978;SDS011;28616;44.746;19.678;2023-05-24T02:13:32;23.95;;;11.48;;
42978;SDS011;28616;44.746;19.678;2023-05-24T02:15:57;21.40;;;12.30;;
42978;SDS011;28616;44.746;19.678;2023-05-24T02:18:23;15.32;;;10.77;;
42978;SDS011;28616;44.746;19.678;2023-05-24T02:20:49;19.48;;;10.43;;
42978;SDS011;28616;44.746;19.678;2023-05-24T02:23:15;19.02;;;11.68;;
42978;SDS011;28616;44.746;19.678;2023-05-24T02:25:41;21.02;;;10.85;;
42978;SDS011;28616;44.746;19.678;2023-05-24T02:28:07;20.05;;;10.73;;
42978;SDS011;28616;44.746;19.678;2023-05-24T02:30:32;13.00;;;9.98;;
42978;SDS011;28616;44.746;19.678;2023-05-24T02:32:58;14.40;;;10.73;;
42978;SDS011;28616;44.746;19.678;2023-05-24T02:35:24;18.23;;;10.85;;
42978;SDS011;28616;44.746;19.678;2023-05-24T02:37:50;24.33;;;11.63;;
42978;SDS011;28616;44.746;19.678;2023-05-24T02:40:16;21.50;;;11.90;;
42978;SDS011;28616;44.746;19.678;2023-05-24T02:42:42;17.73;;;11.07;;
42978;SDS011;28616;44.746;19.678;2023-05-24T02:45:08;17.52;;;11.15;;
42978;SDS011;28616;44.746;19.678;2023-05-24T02:47:34;19.65;;;11.15;;
42978;SDS011;28616;44.746;19.678;2023-05-24T02:49:59;17.60;;;10.77;;
42978;SDS011;28616;44.746;19.678;2023-05-24T02:52:25;16.65;;;10.75;;
42978;SDS011;28616;44.746;19.678;2023-05-24T02:54:51;19.38;;;11.48;;
42978;SDS011;28616;44.746;19.678;2023-05-24T02:57:17;15.65;;;10.68;;
42978;SDS011;28616;44.746;19.678;2023-05-24T02:59:43;19.38;;;10.57;;
42978;SDS011;28616;44.746;19.678;2023-05-24T03:02:08;20.45;;;11.30;;
42978;SDS011;28616;44.746;19.678;2023-05-24T03:04:37;23.52;;;12.23;;
42978;SDS011;28616;44.746;19.678;2023-05-24T03:07:03;25.58;;;11.80;;
42978;SDS011;28616;44.746;19.678;2023-05-24T03:09:30;16.98;;;11.27;;
42978;SDS011;28616;44.746;19.678;2023-05-24T03:11:55;19.10;;;11.52;;
42978;SDS011;28616;44.746;19.678;2023-05-24T03:14:21;23.27;;;11.95;;
42978;SDS011;28616;44.746;19.678;2023-05-24T03:16:48;20.23;;;12.10;;
42978;SDS011;28616;44.746;19.678;2023-05-24T03:19:15;20.10;;;11.48;;
42978;SDS011;28616;44.746;19.678;2023-05-24T03:21:43;17.33;;;10.98;;
42978;SDS011;28616;44.746;19.678;2023-05-24T03:24:09;20.70;;;11.18;;
42978;SDS011;28616;44.746;19.678;2023-05-24T03:26:37;18.48;;;11.85;;
42978;SDS011;28616;44.746;19.678;2023-05-24T03:29:04;22.42;;;11.68;;
42978;SDS011;28616;44.746;19.678;2023-05-24T03:31:30;22.25;;;11.50;;
42978;SDS011;28616;44.746;19.678;2023-05-24T03:33:55;16.70;;;10.85;;
42978;SDS011;28616;44.746;19.678;2023-05-24T03:36:21;19.27;;;11.45;;
42978;SDS011;28616;44.746;19.678;2023-05-24T03:38:47;21.55;;;10.75;;
42978;SDS011;28616;44.746;19.678;2023-05-24T03:41:13;21.83;;;11.68;;
42978;SDS011;28616;44.746;19.678;2023-05-24T03:43:39;16.52;;;11.77;;
42978;SDS011;28616;44.746;19.678;2023-05-24T03:46:04;24.20;;;12.43;;
42978;SDS011;28616;44.746;19.678;2023-05-24T03:48:30;22.17;;;11.80;;
42978;SDS011;28616;44.746;19.678;2023-05-24T03:50:56;22.80;;;11.68;;
42978;SDS011;28616;44.746;19.678;2023-05-24T03:53:22;27.92;;;13.57;;
42978;SDS011;28616;44.746;19.678;2023-05-24T03:55:47;18.75;;;11.43;;
42978;SDS011;28616;44.746;19.678;2023-05-24T03:58:13;21.52;;;11.20;;
42978;SDS011;28616;44.746;19.678;2023-05-24T04:00:39;26.08;;;11.10;;
42978;SDS011;28616;44.746;19.678;2023-05-24T04:03:05;21.45;;;11.38;;
42978;SDS011;28616;44.746;19.678;2023-05-24T04:05:31;19.35;;;10.82;;
42978;SDS011;28616;44.746;19.678;2023-05-24T04:07:57;21.58;;;10.70;;
42978;SDS011;28616;44.746;19.678;2023-05-24T04:10:23;14.52;;;10.13;;
42978;SDS011;28616;44.746;19.678;2023-05-24T04:12:49;19.67;;;10.57;;
42978;SDS011;28616;44.746;19.678;2023-05-24T04:15:15;22.00;;;10.65;;
42978;SDS011;28616;44.746;19.678;2023-05-24T04:17:41;20.85;;;10.90;;
42978;SDS011;28616;44.746;19.678;2023-05-24T04:20:08;17.23;;;10.55;;
42978;SDS011;28616;44.746;19.678;2023-05-24T04:22:35;17.23;;;9.85;;
42978;SDS011;28616;44.746;19.678;2023-05-24T04:25:01;17.85;;;10.23;;
42978;SDS011;28616;44.746;19.678;2023-05-24T04:27:27;13.95;;;9.65;;
42978;SDS011;28616;44.746;19.678;2023-05-24T04:29:54;18.40;;;9.88;;
42978;SDS011;28616;44.746;19.678;2023-05-24T04:32:20;15.23;;;9.10;;
42978;SDS011;28616;44.746;19.678;2023-05-24T04:34:47;15.90;;;10.40;;
42978;SDS011;28616;44.746;19.678;2023-05-24T04:37:14;18.08;;;9.80;;
42978;SDS011;28616;44.746;19.678;2023-05-24T04:39:41;19.20;;;10.20;;
42978;SDS011;28616;44.746;19.678;2023-05-24T04:42:08;14.48;;;10.15;;
42978;SDS011;28616;44.746;19.678;2023-05-24T04:44:35;17.95;;;9.63;;
42978;SDS011;28616;44.746;19.678;2023-05-24T04:47:01;15.57;;;9.43;;
42978;SDS011;28616;44.746;19.678;2023-05-24T04:49:28;19.08;;;10.35;;
42978;SDS011;28616;44.746;19.678;2023-05-24T04:51:55;19.33;;;10.18;;
42978;SDS011;28616;44.746;19.678;2023-05-24T04:54:21;14.45;;;10.00;;
42978;SDS011;28616;44.746;19.678;2023-05-24T04:56:47;19.42;;;10.73;;
42978;SDS011;28616;44.746;19.678;2023-05-24T04:59:13;21.67;;;9.77;;
42978;SDS011;28616;44.746;19.678;2023-05-24T05:01:38;18.00;;;9.77;;
42978;SDS011;28616;44.746;19.678;2023-05-24T05:04:04;18.45;;;10.43;;
42978;SDS011;28616;44.746;19.678;2023-05-24T05:06:31;18.50;;;10.93;;
42978;SDS011;28616;44.746;19.678;2023-05-24T05:08:59;22.33;;;10.32;;
42978;SDS011;28616;44.746;19.678;2023-05-24T05:11:25;19.25;;;9.43;;
42978;SDS011;28616;44.746;19.678;2023-05-24T05:13:51;15.20;;;9.73;;
42978;SDS011;28616;44.746;19.678;2023-05-24T05:16:18;16.13;;;10.05;;
42978;SDS011;28616;44.746;19.678;2023-05-24T05:18:44;17.63;;;10.18;;
42978;SDS011;28616;44.746;19.678;2023-05-24T05:21:10;14.73;;;9.60;;
42978;SDS011;28616;44.746;19.678;2023-05-24T05:23:36;17.02;;;10.50;;
42978;SDS011;28616;44.746;19.678;2023-05-24T05:26:03;16.45;;;10.35;;
42978;SDS011;28616;44.746;19.678;2023-05-24T05:28:31;13.57;;;9.60;;
42978;SDS011;28616;44.746;19.678;2023-05-24T05:30:57;17.02;;;9.82;;
42978;SDS011;28616;44.746;19.678;2023-05-24T05:33:22;13.45;;;9.85;;
42978;SDS011;28616;44.746;19.678;2023-05-24T05:35:49;21.30;;;10.68;;
42978;SDS011;28616;44.746;19.678;2023-05-24T05:38:15;15.35;;;9.95;;
42978;SDS011;28616;44.746;19.678;2023-05-24T05:40:40;14.65;;;10.20;;
42978;SDS011;28616;44.746;19.678;2023-05-24T05:43:06;15.02;;;9.82;;
42978;SDS011;28616;44.746;19.678;2023-05-24T05:45:33;17.58;;;10.20;;
42978;SDS011;28616;44.746;19.678;2023-05-24T05:47:59;17.15;;;9.35;;
42978;SDS011;28616;44.746;19.678;2023-05-24T05:50:24;18.23;;;10.82;;
42978;SDS011;28616;44.746;19.678;2023-05-24T05:52:50;25.30;;;9.77;;
42978;SDS011;28616;44.746;19.678;2023-05-24T05:55:16;14.60;;;10.07;;
42978;SDS011;28616;44.746;19.678;2023-05-24T05:57:42;14.02;;;10.00;;
42978;SDS011;28616;44.746;19.678;2023-05-24T06:00:08;17.60;;;10.13;;
42978;SDS011;28616;44.746;19.678;2023-05-24T06:02:34;16.95;;;9.38;;
42978;SDS011;28616;44.746;19.678;2023-05-24T06:05:00;14.93;;;9.65;;
42978;SDS011;28616;44.746;19.678;2023-05-24T06:07:27;12.82;;;9.80;;
42978;SDS011;28616;44.746;19.678;2023-05-24T06:09:53;15.75;;;9.73;;
42978;SDS011;28616;44.746;19.678;2023-05-24T06:12:18;21.50;;;9.82;;
42978;SDS011;28616;44.746;19.678;2023-05-24T06:14:44;15.20;;;9.07;;
42978;SDS011;28616;44.746;19.678;2023-05-24T06:17:12;20.27;;;10.45;;
42978;SDS011;28616;44.746;19.678;2023-05-24T06:19:38;17.65;;;9.68;;
42978;SDS011;28616;44.746;19.678;2023-05-24T06:22:04;14.75;;;10.25;;
42978;SDS011;28616;44.746;19.678;2023-05-24T06:24:29;12.55;;;9.32;;
42978;SDS011;28616;44.746;19.678;2023-05-24T06:26:58;19.88;;;9.82;;
42978;SDS011;28616;44.746;19.678;2023-05-24T06:29:24;11.60;;;9.13;;
42978;SDS011;28616;44.746;19.678;2023-05-24T06:31:50;14.20;;;10.27;;
42978;SDS011;28616;44.746;19.678;2023-05-24T06:34:16;14.20;;;9.32;;
42978;SDS011;28616;44.746;19.678;2023-05-24T06:36:45;15.90;;;10.23;;
42978;SDS011;28616;44.746;19.678;2023-05-24T06:39:12;16.10;;;10.60;;
42978;SDS011;28616;44.746;19.678;2023-05-24T06:41:38;19.58;;;10.23;;
42978;SDS011;28616;44.746;19.678;2023-05-24T06:44:05;14.82;;;10.80;;
42978;SDS011;28616;44.746;19.678;2023-05-24T06:46:30;19.42;;;9.60;;
42978;SDS011;28616;44.746;19.678;2023-05-24T06:48:56;15.35;;;10.18;;
42978;SDS011;28616;44.746;19.678;2023-05-24T06:51:22;14.60;;;10.02;;
42978;SDS011;28616;44.746;19.678;2023-05-24T06:53:48;12.70;;;9.93;;
42978;SDS011;28616;44.746;19.678;2023-05-24T06:56:15;16.63;;;10.45;;
42978;SDS011;28616;44.746;19.678;2023-05-24T06:58:41;15.07;;;9.40;;
42978;SDS011;28616;44.746;19.678;2023-05-24T07:01:06;19.83;;;9.95;;
42978;SDS011;28616;44.746;19.678;2023-05-24T07:03:32;16.90;;;10.70;;
42978;SDS011;28616;44.746;19.678;2023-05-24T07:05:59;13.00;;;9.93;;
42978;SDS011;28616;44.746;19.678;2023-05-24T07:08:25;14.60;;;9.27;;
42978;SDS011;28616;44.746;19.678;2023-05-24T07:10:52;18.83;;;8.98;;
42978;SDS011;28616;44.746;19.678;2023-05-24T07:13:18;15.48;;;9.25;;
42978;SDS011;28616;44.746;19.678;2023-05-24T07:15:45;13.80;;;10.18;;
42978;SDS011;28616;44.746;19.678;2023-05-24T07:18:11;14.95;;;9.85;;
42978;SDS011;28616;44.746;19.678;2023-05-24T07:20:37;14.73;;;9.13;;
42978;SDS011;28616;44.746;19.678;2023-05-24T07:23:03;17.98;;;9.48;;
42978;SDS011;28616;44.746;19.678;2023-05-24T07:25:29;16.70;;;10.60;;
42978;SDS011;28616;44.746;19.678;2023-05-24T07:27:55;15.75;;;9.65;;
42978;SDS011;28616;44.746;19.678;2023-05-24T07:30:21;13.10;;;9.15;;
42978;SDS011;28616;44.746;19.678;2023-05-24T07:32:47;14.25;;;10.07;;
42978;SDS011;28616;44.746;19.678;2023-05-24T07:35:12;13.40;;;9.45;;
42978;SDS011;28616;44.746;19.678;2023-05-24T07:37:39;15.32;;;9.98;;
42978;SDS011;28616;44.746;19.678;2023-05-24T07:40:05;13.95;;;10.27;;
42978;SDS011;28616;44.746;19.678;2023-05-24T07:42:35;15.43;;;10.10;;
42978;SDS011;28616;44.746;19.678;2023-05-24T07:45:01;14.95;;;9.65;;
42978;SDS011;28616;44.746;19.678;2023-05-24T07:47:27;12.45;;;9.52;;
42978;SDS011;28616;44.746;19.678;2023-05-24T07:49:53;12.43;;;9.82;;
42978;SDS011;28616;44.746;19.678;2023-05-24T07:52:18;15.88;;;10.77;;
42978;SDS011;28616;44.746;19.678;2023-05-24T07:54:44;14.27;;;9.88;;
42978;SDS011;28616;44.746;19.678;2023-05-24T07:57:10;16.63;;;10.55;;
42978;SDS011;28616;44.746;19.678;2023-05-24T07:59:37;17.92;;;10.38;;
42978;SDS011;28616;44.746;19.678;2023-05-24T08:02:02;13.00;;;9.70;;
42978;SDS011;28616;44.746;19.678;2023-05-24T08:04:30;11.93;;;9.45;;
42978;SDS011;28616;44.746;19.678;2023-05-24T08:06:57;16.08;;;10.90;;
42978;SDS011;28616;44.746;19.678;2023-05-24T08:09:25;10.77;;;9.65;;
42978;SDS011;28616;44.746;19.678;2023-05-24T08:11:52;13.40;;;10.05;;
42978;SDS011;28616;44.746;19.678;2023-05-24T08:14:18;12.07;;;10.13;;
42978;SDS011;28616;44.746;19.678;2023-05-24T08:16:44;11.82;;;10.07;;
42978;SDS011;28616;44.746;19.678;2023-05-24T08:19:10;11.48;;;9.75;;
42978;SDS011;28616;44.746;19.678;2023-05-24T08:21:36;16.90;;;10.02;;
42978;SDS011;28616;44.746;19.678;2023-05-24T08:24:02;11.85;;;9.23;;
42978;SDS011;28616;44.746;19.678;2023-05-24T08:26:28;12.23;;;8.95;;
42978;SDS011;28616;44.746;19.678;2023-05-24T08:28:55;10.15;;;8.98;;
42978;SDS011;28616;44.746;19.678;2023-05-24T08:31:21;16.45;;;9.90;;
42978;SDS011;28616;44.746;19.678;2023-05-24T08:33:47;14.07;;;9.35;;
42978;SDS011;28616;44.746;19.678;2023-05-24T08:36:16;12.60;;;9.32;;
42978;SDS011;28616;44.746;19.678;2023-05-24T08:38:42;13.18;;;9.57;;
42978;SDS011;28616;44.746;19.678;2023-05-24T08:41:10;11.73;;;9.40;;
42978;SDS011;28616;44.746;19.678;2023-05-24T08:43:40;15.70;;;10.13;;
42978;SDS011;28616;44.746;19.678;2023-05-24T08:48:35;13.43;;;9.35;;
42978;SDS011;28616;44.746;19.678;2023-05-24T08:51:06;13.73;;;9.00;;
42978;SDS011;28616;44.746;19.678;2023-05-24T08:53:32;14.32;;;10.10;;
42978;SDS011;28616;44.746;19.678;2023-05-24T08:56:01;12.65;;;9.02;;
42978;SDS011;28616;44.746;19.678;2023-05-24T08:58:27;14.95;;;9.35;;
42978;SDS011;28616;44.746;19.678;2023-05-24T09:00:54;13.57;;;9.43;;
42978;SDS011;28616;44.746;19.678;2023-05-24T09:03:20;10.45;;;8.13;;
42978;SDS011;28616;44.746;19.678;2023-05-24T09:05:47;13.43;;;8.65;;
42978;SDS011;28616;44.746;19.678;2023-05-24T09:08:14;12.57;;;8.65;;
42978;SDS011;28616;44.746;19.678;2023-05-24T09:10:42;10.73;;;8.07;;
42978;SDS011;28616;44.746;19.678;2023-05-24T09:13:08;10.10;;;8.43;;
42978;SDS011;28616;44.746;19.678;2023-05-24T09:15:36;11.65;;;8.68;;
42978;SDS011;28616;44.746;19.678;2023-05-24T09:18:02;10.45;;;8.52;;
42978;SDS011;28616;44.746;19.678;2023-05-24T09:20:27;14.52;;;9.52;;
42978;SDS011;28616;44.746;19.678;2023-05-24T09:22:54;14.27;;;10.10;;
42978;SDS011;28616;44.746;19.678;2023-05-24T09:25:21;11.18;;;9.00;;
42978;SDS011;28616;44.746;19.678;2023-05-24T09:27:50;13.20;;;8.88;;
42978;SDS011;28616;44.746;19.678;2023-05-24T09:30:18;9.73;;;7.80;;
42978;SDS011;28616;44.746;19.678;2023-05-24T09:32:54;15.27;;;8.80;;
42978;SDS011;28616;44.746;19.678;2023-05-24T09:35:21;13.43;;;9.23;;
42978;SDS011;28616;44.746;19.678;2023-05-24T09:37:47;18.05;;;9.15;;
42978;SDS011;28616;44.746;19.678;2023-05-24T09:40:16;14.38;;;8.90;;
42978;SDS011;28616;44.746;19.678;2023-05-24T09:42:43;9.87;;;8.50;;
42978;SDS011;28616;44.746;19.678;2023-05-24T09:45:10;11.45;;;8.18;;
42978;SDS011;28616;44.746;19.678;2023-05-24T09:47:39;10.43;;;7.60;;
42978;SDS011;28616;44.746;19.678;2023-05-24T09:50:15;12.27;;;7.65;;
42978;SDS011;28616;44.746;19.678;2023-05-24T09:52:41;9.90;;;7.20;;
42978;SDS011;28616;44.746;19.678;2023-05-24T09:55:14;9.43;;;7.72;;
42978;SDS011;28616;44.746;19.678;2023-05-24T09:57:41;9.57;;;7.20;;
42978;SDS011;28616;44.746;19.678;2023-05-24T10:00:09;9.98;;;7.13;;
42978;SDS011;28616;44.746;19.678;2023-05-24T10:02:38;9.20;;;7.72;;
42978;SDS011;28616;44.746;19.678;2023-05-24T10:05:04;7.53;;;6.53;;
42978;SDS011;28616;44.746;19.678;2023-05-24T10:07:32;8.13;;;7.28;;
42978;SDS011;28616;44.746;19.678;2023-05-24T10:09:59;7.80;;;6.70;;
42978;SDS011;28616;44.746;19.678;2023-05-24T10:12:26;12.93;;;7.22;;
42978;SDS011;28616;44.746;19.678;2023-05-24T10:14:52;9.80;;;8.50;;
42978;SDS011;28616;44.746;19.678;2023-05-24T10:17:21;10.48;;;7.38;;
42978;SDS011;28616;44.746;19.678;2023-05-24T10:19:47;10.88;;;7.45;;
42978;SDS011;28616;44.746;19.678;2023-05-24T10:22:15;14.85;;;8.38;;
42978;SDS011;28616;44.746;19.678;2023-05-24T10:24:43;10.73;;;7.80;;
42978;SDS011;28616;44.746;19.678;2023-05-24T10:27:13;10.93;;;9.23;;
42978;SDS011;28616;44.746;19.678;2023-05-24T10:29:43;11.15;;;7.63;;
42978;SDS011;28616;44.746;19.678;2023-05-24T10:32:13;13.82;;;8.65;;
42978;SDS011;28616;44.746;19.678;2023-05-24T10:34:40;9.48;;;8.13;;
42978;SDS011;28616;44.746;19.678;2023-05-24T10:37:07;11.52;;;7.95;;
42978;SDS011;28616;44.746;19.678;2023-05-24T10:39:33;8.50;;;7.70;;
42978;SDS011;28616;44.746;19.678;2023-05-24T10:42:03;9.20;;;8.27;;
42978;SDS011;28616;44.746;19.678;2023-05-24T10:44:30;10.48;;;8.60;;
42978;SDS011;28616;44.746;19.678;2023-05-24T10:47:09;10.38;;;8.15;;
42978;SDS011;28616;44.746;19.678;2023-05-24T10:49:37;10.93;;;9.07;;
42978;SDS011;28616;44.746;19.678;2023-05-24T10:52:07;12.18;;;8.32;;
42978;SDS011;28616;44.746;19.678;2023-05-24T10:54:33;12.15;;;8.55;;
42978;SDS011;28616;44.746;19.678;2023-05-24T10:57:02;11.13;;;8.13;;
42978;SDS011;28616;44.746;19.678;2023-05-24T11:01:57;9.07;;;7.03;;
42978;SDS011;28616;44.746;19.678;2023-05-24T11:04:24;8.80;;;7.45;;
42978;SDS011;28616;44.746;19.678;2023-05-24T11:06:54;9.63;;;7.22;;
42978;SDS011;28616;44.746;19.678;2023-05-24T11:09:20;8.43;;;7.63;;
42978;SDS011;28616;44.746;19.678;2023-05-24T11:11:48;8.80;;;7.90;;
42978;SDS011;28616;44.746;19.678;2023-05-24T11:14:18;13.35;;;8.82;;
42978;SDS011;28616;44.746;19.678;2023-05-24T11:16:45;8.85;;;7.78;;
42978;SDS011;28616;44.746;19.678;2023-05-24T11:21:38;8.85;;;7.95;;
42978;SDS011;28616;44.746;19.678;2023-05-24T11:24:06;8.50;;;7.55;;
42978;SDS011;28616;44.746;19.678;2023-05-24T11:26:33;7.60;;;6.85;;
42978;SDS011;28616;44.746;19.678;2023-05-24T11:29:00;7.78;;;7.07;;
42978;SDS011;28616;44.746;19.678;2023-05-24T11:31:26;8.00;;;7.20;;
42978;SDS011;28616;44.746;19.678;2023-05-24T11:33:52;8.38;;;7.63;;
42978;SDS011;28616;44.746;19.678;2023-05-24T11:36:19;8.63;;;7.70;;
42978;SDS011;28616;44.746;19.678;2023-05-24T11:38:45;8.07;;;7.38;;
42978;SDS011;28616;44.746;19.678;2023-05-24T11:41:12;12.07;;;7.70;;
42978;SDS011;28616;44.746;19.678;2023-05-24T11:43:38;10.93;;;7.85;;
42978;SDS011;28616;44.746;19.678;2023-05-24T11:46:06;10.00;;;9.02;;
42978;SDS011;28616;44.746;19.678;2023-05-24T11:48:32;10.93;;;9.70;;
42978;SDS011;28616;44.746;19.678;2023-05-24T11:50:58;12.57;;;9.40;;
42978;SDS011;28616;44.746;19.678;2023-05-24T11:53:25;11.50;;;10.10;;
42978;SDS011;28616;44.746;19.678;2023-05-24T11:55:51;13.88;;;10.23;;
42978;SDS011;28616;44.746;19.678;2023-05-24T11:58:22;9.77;;;8.77;;
42978;SDS011;28616;44.746;19.678;2023-05-24T12:00:49;11.45;;;10.07;;
42978;SDS011;28616;44.746;19.678;2023-05-24T12:03:15;10.52;;;9.52;;
42978;SDS011;28616;44.746;19.678;2023-05-24T12:05:42;11.40;;;10.23;;
42978;SDS011;28616;44.746;19.678;2023-05-24T12:08:10;11.23;;;10.10;;
42978;SDS011;28616;44.746;19.678;2023-05-24T12:10:42;11.82;;;10.40;;
42978;SDS011;28616;44.746;19.678;2023-05-24T12:13:21;13.40;;;10.23;;
42978;SDS011;28616;44.746;19.678;2023-05-24T12:15:52;16.33;;;9.98;;
42978;SDS011;28616;44.746;19.678;2023-05-24T12:18:18;16.60;;;10.52;;
42978;SDS011;28616;44.746;19.678;2023-05-24T12:20:45;12.73;;;11.35;;
42978;SDS011;28616;44.746;19.678;2023-05-24T12:23:13;12.23;;;10.95;;
42978;SDS011;28616;44.746;19.678;2023-05-24T12:25:39;13.30;;;11.43;;
42978;SDS011;28616;44.746;19.678;2023-05-24T12:28:05;14.02;;;10.20;;
42978;SDS011;28616;44.746;19.678;2023-05-24T12:30:32;12.55;;;10.73;;
42978;SDS011;28616;44.746;19.678;2023-05-24T12:32:58;13.82;;;11.27;;
42978;SDS011;28616;44.746;19.678;2023-05-24T12:35:24;12.90;;;11.05;;
42978;SDS011;28616;44.746;19.678;2023-05-24T12:37:56;15.82;;;11.32;;
42978;SDS011;28616;44.746;19.678;2023-05-24T12:40:23;12.90;;;10.85;;
42978;SDS011;28616;44.746;19.678;2023-05-24T12:42:50;13.68;;;10.00;;
42978;SDS011;28616;44.746;19.678;2023-05-24T12:45:18;12.27;;;10.85;;
42978;SDS011;28616;44.746;19.678;2023-05-24T12:47:50;13.20;;;10.30;;
42978;SDS011;28616;44.746;19.678;2023-05-24T12:50:17;11.93;;;10.27;;
42978;SDS011;28616;44.746;19.678;2023-05-24T12:52:43;12.18;;;9.55;;
42978;SDS011;28616;44.746;19.678;2023-05-24T12:55:15;11.30;;;8.73;;
42978;SDS011;28616;44.746;19.678;2023-05-24T12:57:41;11.35;;;10.05;;
42978;SDS011;28616;44.746;19.678;2023-05-24T13:00:09;13.13;;;9.05;;
42978;SDS011;28616;44.746;19.678;2023-05-24T13:02:36;12.68;;;10.32;;
42978;SDS011;28616;44.746;19.678;2023-05-24T13:05:02;13.43;;;10.07;;
42978;SDS011;28616;44.746;19.678;2023-05-24T13:07:29;14.60;;;11.35;;
42978;SDS011;28616;44.746;19.678;2023-05-24T13:09:56;21.80;;;11.27;;
42978;SDS011;28616;44.746;19.678;2023-05-24T13:12:23;13.68;;;9.93;;
42978;SDS011;28616;44.746;19.678;2023-05-24T13:14:49;10.48;;;9.43;;
42978;SDS011;28616;44.746;19.678;2023-05-24T13:17:16;10.82;;;9.75;;
42978;SDS011;28616;44.746;19.678;2023-05-24T13:19:43;12.93;;;9.73;;
42978;SDS011;28616;44.746;19.678;2023-05-24T13:22:09;9.50;;;8.50;;
42978;SDS011;28616;44.746;19.678;2023-05-24T13:24:35;9.63;;;8.60;;
42978;SDS011;28616;44.746;19.678;2023-05-24T13:27:01;9.65;;;8.63;;
42978;SDS011;28616;44.746;19.678;2023-05-24T13:29:28;13.75;;;10.18;;
42978;SDS011;28616;44.746;19.678;2023-05-24T13:31:54;10.20;;;8.93;;
42978;SDS011;28616;44.746;19.678;2023-05-24T13:34:21;9.45;;;8.50;;
42978;SDS011;28616;44.746;19.678;2023-05-24T13:36:51;10.05;;;8.65;;
42978;SDS011;28616;44.746;19.678;2023-05-24T13:39:18;11.10;;;8.18;;
42978;SDS011;28616;44.746;19.678;2023-05-24T13:41:45;10.48;;;8.95;;
42978;SDS011;28616;44.746;19.678;2023-05-24T13:44:11;10.88;;;8.90;;
42978;SDS011;28616;44.746;19.678;2023-05-24T13:46:38;11.25;;;8.57;;
42978;SDS011;28616;44.746;19.678;2023-05-24T13:49:05;12.52;;;9.15;;
42978;SDS011;28616;44.746;19.678;2023-05-24T13:51:31;10.60;;;9.60;;
42978;SDS011;28616;44.746;19.678;2023-05-24T13:53:57;10.07;;;8.80;;
42978;SDS011;28616;44.746;19.678;2023-05-24T13:56:24;12.18;;;8.90;;
42978;SDS011;28616;44.746;19.678;2023-05-24T13:58:56;50.35;;;9.98;;
42978;SDS011;28616;44.746;19.678;2023-05-24T14:01:22;19.00;;;8.48;;
42978;SDS011;28616;44.746;19.678;2023-05-24T14:03:49;13.60;;;8.45;;
42978;SDS011;28616;44.746;19.678;2023-05-24T14:06:16;9.55;;;8.65;;
42978;SDS011;28616;44.746;19.678;2023-05-24T14:08:42;10.63;;;7.90;;
42978;SDS011;28616;44.746;19.678;2023-05-24T14:11:08;10.27;;;8.25;;
42978;SDS011;28616;44.746;19.678;2023-05-24T14:13:37;11.63;;;9.30;;
42978;SDS011;28616;44.746;19.678;2023-05-24T14:16:03;12.18;;;9.73;;
42978;SDS011;28616;44.746;19.678;2023-05-24T14:18:29;10.02;;;8.50;;
42978;SDS011;28616;44.746;19.678;2023-05-24T14:20:55;9.43;;;8.52;;
42978;SDS011;28616;44.746;19.678;2023-05-24T14:23:21;10.82;;;8.75;;
42978;SDS011;28616;44.746;19.678;2023-05-24T14:25:47;9.18;;;7.82;;
42978;SDS011;28616;44.746;19.678;2023-05-24T14:28:16;10.32;;;8.30;;
42978;SDS011;28616;44.746;19.678;2023-05-24T14:30:42;8.65;;;7.75;;
42978;SDS011;28616;44.746;19.678;2023-05-24T14:33:08;10.70;;;8.45;;
42978;SDS011;28616;44.746;19.678;2023-05-24T14:35:37;9.68;;;8.43;;
42978;SDS011;28616;44.746;19.678;2023-05-24T14:38:04;8.98;;;7.95;;
42978;SDS011;28616;44.746;19.678;2023-05-24T14:40:30;10.40;;;9.38;;
42978;SDS011;28616;44.746;19.678;2023-05-24T14:42:58;11.50;;;7.95;;